createdAt,value
2023-05-05T00:01:51.737Z,100609.22
2023-05-05T00:04:22.808Z,100612.63
2023-05-05T00:06:52.005Z,100611.78
2023-05-05T00:09:20.505Z,100614.31
2023-05-05T00:11:48.774Z,100616.09
2023-05-05T00:14:17.187Z,100610.91
2023-05-05T00:16:45.747Z,100607.41
2023-05-05T00:19:15.663Z,100610.97
2023-05-05T00:21:44.012Z,100608.44
2023-05-05T00:24:12.613Z,100602.41
2023-05-05T00:26:41.171Z,100601.63
2023-05-05T00:29:09.629Z,100598.25
2023-05-05T00:31:38.843Z,100595.66
2023-05-05T00:34:07.215Z,100590.47
2023-05-05T00:36:37.193Z,100593.97
2023-05-05T00:39:05.732Z,100597.50
2023-05-05T00:41:35.034Z,100594.88
2023-05-05T00:44:04.803Z,100594.91
2023-05-05T00:46:35.110Z,100588.00
2023-05-05T00:49:03.883Z,100594.19
2023-05-05T00:51:32.829Z,100594.22
2023-05-05T00:54:03.280Z,100590.81
2023-05-05T00:56:32.571Z,100579.63
2023-05-05T00:59:01.091Z,100597.03
2023-05-05T01:01:30.512Z,100594.56
2023-05-05T01:03:59.431Z,100593.75
2023-05-05T01:06:43.170Z,100589.41
2023-05-05T01:09:25.392Z,100596.47
2023-05-05T01:12:07.375Z,100594.78
2023-05-05T01:14:41.232Z,100588.75
2023-05-05T01:17:18.483Z,100594.00
2023-05-05T01:20:11.041Z,100593.19
2023-05-05T01:22:43.775Z,100595.72
2023-05-05T01:25:37.701Z,100594.00
2023-05-05T01:28:20.722Z,100594.75
2023-05-05T01:31:07.426Z,100596.47
2023-05-05T01:33:45.371Z,100595.53
2023-05-05T01:36:31.713Z,100587.78
2023-05-05T01:39:03.646Z,100582.69
2023-05-05T01:41:44.511Z,100586.13
2023-05-05T01:44:16.788Z,100587.88
2023-05-05T01:46:49.643Z,100582.63
2023-05-05T01:49:19.825Z,100582.50
2023-05-05T01:51:49.285Z,100571.06
2023-05-05T01:54:19.413Z,100573.53
2023-05-05T01:56:50.512Z,100575.22
2023-05-05T01:59:21.148Z,100569.16
2023-05-05T02:01:52.288Z,100569.91
2023-05-05T02:04:23.805Z,100571.56
2023-05-05T02:06:54.655Z,100566.25
2023-05-05T02:09:25.558Z,100561.13
2023-05-05T02:11:58.569Z,100562.88
2023-05-05T02:14:30.214Z,100565.47
2023-05-05T02:16:59.674Z,100566.34
2023-05-05T02:19:33.829Z,100558.53
2023-05-05T02:22:02.523Z,100555.97
2023-05-05T02:24:31.580Z,100553.25
2023-05-05T02:27:04.011Z,100557.63
2023-05-05T02:29:37.829Z,100552.41
2023-05-05T02:32:11.006Z,100552.38
2023-05-05T02:34:43.548Z,100557.53
2023-05-05T02:37:24.725Z,100551.38
2023-05-05T02:40:03.039Z,100553.19
2023-05-05T02:42:37.212Z,100557.63
2023-05-05T02:45:13.453Z,100567.22
2023-05-05T02:47:44.879Z,100565.56
2023-05-05T02:50:15.887Z,100568.25
2023-05-05T02:52:57.471Z,100563.97
2023-05-05T02:55:27.893Z,100550.13
2023-05-05T02:58:04.612Z,100554.38
2023-05-05T03:00:44.453Z,100549.25
2023-05-05T03:03:20.024Z,100559.56
2023-05-05T03:06:01.310Z,100551.81
2023-05-05T03:08:36.027Z,100550.09
2023-05-05T03:11:07.850Z,100550.97
2023-05-05T03:13:44.081Z,100551.81
2023-05-05T03:16:19.801Z,100550.97
2023-05-05T03:18:51.200Z,100550.97
2023-05-05T03:21:35.535Z,100542.28
2023-05-05T03:24:14.681Z,100550.13
2023-05-05T03:26:46.097Z,100545.75
2023-05-05T03:29:15.931Z,100554.31
2023-05-05T03:31:47.686Z,100551.66
2023-05-05T03:34:17.088Z,100552.47
2023-05-05T03:36:50.395Z,100553.19
2023-05-05T03:39:19.305Z,100551.31
2023-05-05T03:41:48.996Z,100548.53
2023-05-05T03:44:19.217Z,100545.88
2023-05-05T03:46:48.209Z,100555.47
2023-05-05T03:49:21.370Z,100555.47
2023-05-05T03:51:52.847Z,100554.63
2023-05-05T03:54:21.381Z,100561.50
2023-05-05T03:56:51.474Z,100565.78
2023-05-05T03:59:20.352Z,100553.53
2023-05-05T04:01:50.196Z,100567.34
2023-05-05T04:04:19.313Z,100555.84
2023-05-05T04:06:47.857Z,100549.53
2023-05-05T04:09:18.299Z,100551.94
2023-05-05T04:11:47.098Z,100561.31
2023-05-05T04:14:15.777Z,100557.66
2023-05-05T04:16:44.757Z,100561.75
2023-05-05T04:19:14.500Z,100567.63
2023-05-05T04:21:43.095Z,100572.63
2023-05-05T04:24:11.977Z,100568.97
2023-05-05T04:26:42.772Z,100563.63
2023-05-05T04:29:11.949Z,100568.78
2023-05-05T04:31:41.496Z,100565.31
2023-05-05T04:34:10.537Z,100567.06
2023-05-05T04:36:40.132Z,100579.88
2023-05-05T04:39:09.598Z,100579.63
2023-05-05T04:41:38.596Z,100585.50
2023-05-05T04:44:09.300Z,100578.41
2023-05-05T04:46:38.516Z,100580.91
2023-05-05T04:49:07.205Z,100576.34
2023-05-05T04:51:36.608Z,100584.00
2023-05-05T04:54:05.854Z,100583.91
2023-05-05T04:56:34.839Z,100587.94
2023-05-05T04:59:04.220Z,100579.59
2023-05-05T05:01:36.879Z,100586.16
2023-05-05T05:04:07.202Z,100588.44
2023-05-05T05:06:36.018Z,100587.28
2023-05-05T05:09:05.675Z,100589.41
2023-05-05T05:11:34.816Z,100591.44
2023-05-05T05:14:03.712Z,100593.66
2023-05-05T05:16:32.685Z,100594.97
2023-05-05T05:19:03.243Z,100595.22
2023-05-05T05:21:36.378Z,100597.41
2023-05-05T05:24:06.003Z,100595.41
2023-05-05T05:26:34.702Z,100607.41
2023-05-05T05:29:04.476Z,100591.50
2023-05-05T05:31:34.615Z,100604.81
2023-05-05T05:34:05.926Z,100599.69
2023-05-05T05:36:35.982Z,100605.88
2023-05-05T05:39:05.650Z,100598.94
2023-05-05T05:41:34.858Z,100599.94
2023-05-05T05:44:03.711Z,100602.81
2023-05-05T05:46:33.313Z,100600.50
2023-05-05T05:49:02.481Z,100603.47
2023-05-05T05:51:33.760Z,100607.09
2023-05-05T05:54:03.176Z,100605.53
2023-05-05T05:56:32.901Z,100601.72
2023-05-05T05:59:02.359Z,100605.59
2023-05-05T06:01:31.411Z,100611.06
2023-05-05T06:04:01.047Z,100615.72
2023-05-05T06:06:30.420Z,100610.84
2023-05-05T06:09:00.699Z,100614.56
2023-05-05T06:11:31.527Z,100602.75
2023-05-05T06:14:00.828Z,100611.03
2023-05-05T06:16:29.901Z,100611.19
2023-05-05T06:19:00.961Z,100615.75
2023-05-05T06:21:30.130Z,100615.91
2023-05-05T06:23:58.830Z,100611.66
2023-05-05T06:26:30.010Z,100615.97
2023-05-05T06:28:59.567Z,100624.53
2023-05-05T06:31:28.357Z,100619.81
2023-05-05T06:33:57.304Z,100618.38
2023-05-05T06:36:26.816Z,100611.84
2023-05-05T06:38:59.487Z,100618.53
2023-05-05T06:41:30.131Z,100616.44
2023-05-05T06:44:01.946Z,100619.91
2023-05-05T06:46:31.338Z,100622.91
2023-05-05T06:49:00.889Z,100626.44
2023-05-05T06:51:29.767Z,100619.84
2023-05-05T06:53:58.967Z,100620.63
2023-05-05T06:56:29.809Z,100623.38
2023-05-05T06:58:59.151Z,100618.75
2023-05-05T07:01:28.136Z,100613.94
2023-05-05T07:03:57.014Z,100612.00
2023-05-05T07:06:26.029Z,100612.44
2023-05-05T07:08:55.809Z,100614.00
2023-05-05T07:11:24.715Z,100604.88
2023-05-05T07:13:55.506Z,100603.47
2023-05-05T07:16:27.204Z,100601.44
2023-05-05T07:18:56.308Z,100602.22
2023-05-05T07:21:25.704Z,100608.66
2023-05-05T07:23:54.941Z,100608.28
2023-05-05T07:26:23.926Z,100612.91
2023-05-05T07:28:53.456Z,100613.19
2023-05-05T07:31:24.100Z,100609.88
2023-05-05T07:33:53.387Z,100608.72
2023-05-05T07:36:22.688Z,100608.47
2023-05-05T07:38:51.671Z,100616.56
2023-05-05T07:41:21.648Z,100617.50
2023-05-05T07:43:52.033Z,100615.50
2023-05-05T07:46:21.713Z,100614.03
2023-05-05T07:48:52.015Z,100615.84
2023-05-05T07:51:21.817Z,100622.53
2023-05-05T07:53:50.915Z,100615.13
2023-05-05T07:56:21.680Z,100614.41
2023-05-05T07:58:51.018Z,100617.41
2023-05-05T08:01:20.366Z,100619.63
2023-05-05T08:03:51.816Z,100610.72
2023-05-05T08:06:23.726Z,100612.78
2023-05-05T08:08:54.373Z,100608.72
2023-05-05T08:11:23.778Z,100620.97
2023-05-05T08:13:52.762Z,100617.06
2023-05-05T08:16:21.554Z,100617.34
2023-05-05T08:18:50.549Z,100609.53
2023-05-05T08:21:21.555Z,100614.28
2023-05-05T08:23:50.454Z,100612.00
2023-05-05T08:26:19.387Z,100609.41
2023-05-05T08:28:48.958Z,100615.88
2023-05-05T08:31:19.507Z,100608.94
2023-05-05T08:33:48.450Z,100611.06
2023-05-05T08:36:17.319Z,100617.16
2023-05-05T08:38:48.025Z,100610.63
2023-05-05T08:41:19.396Z,100604.91
2023-05-05T08:43:59.358Z,100595.59
2023-05-05T08:46:31.045Z,100606.78
2023-05-05T08:49:00.491Z,100608.00
2023-05-05T08:51:38.438Z,100598.59
2023-05-05T08:54:14.748Z,100609.34
2023-05-05T08:56:46.737Z,100595.41
2023-05-05T08:59:17.389Z,100603.88
2023-05-05T09:01:47.457Z,100599.84
2023-05-05T09:04:19.522Z,100607.84
2023-05-05T09:06:48.331Z,100599.47
2023-05-05T09:09:19.067Z,100589.88
2023-05-05T09:11:48.675Z,100592.88
2023-05-05T09:14:17.589Z,100608.19
2023-05-05T09:16:46.735Z,100606.81
2023-05-05T09:19:18.544Z,100607.88
2023-05-05T09:21:49.202Z,100605.09
2023-05-05T09:24:19.698Z,100599.84
2023-05-05T09:26:50.082Z,100609.50
2023-05-05T09:29:23.432Z,100601.03
2023-05-05T09:32:06.008Z,100605.13
2023-05-05T09:34:36.396Z,100598.63
2023-05-05T09:37:06.410Z,100600.84
2023-05-05T09:39:37.199Z,100601.16
2023-05-05T09:42:06.430Z,100600.25
2023-05-05T09:44:36.383Z,100595.03
2023-05-05T09:47:14.806Z,100600.53
2023-05-05T09:50:00.671Z,100593.16
2023-05-05T09:52:30.664Z,100590.75
2023-05-05T09:55:01.287Z,100585.25
2023-05-05T09:57:31.816Z,100590.81
2023-05-05T10:00:02.233Z,100585.44
2023-05-05T10:02:36.284Z,100584.22
2023-05-05T10:05:10.359Z,100586.63
2023-05-05T10:07:41.416Z,100580.69
2023-05-05T10:10:13.883Z,100581.38
2023-05-05T10:12:43.640Z,100576.63
2023-05-05T10:15:14.213Z,100583.38
2023-05-05T10:18:02.240Z,100577.94
2023-05-05T10:20:37.751Z,100569.25
2023-05-05T10:23:09.576Z,100575.47
2023-05-05T10:25:48.294Z,100570.50
2023-05-05T10:28:25.017Z,100565.13
2023-05-05T10:30:58.381Z,100576.81
2023-05-05T10:33:36.311Z,100568.31
2023-05-05T10:36:07.932Z,100564.78
2023-05-05T10:38:39.243Z,100561.78
2023-05-05T10:41:11.534Z,100559.63
2023-05-05T10:43:40.744Z,100561.34
2023-05-05T10:46:10.225Z,100556.97
2023-05-05T10:48:44.270Z,100556.56
2023-05-05T10:51:35.956Z,100559.75
2023-05-05T10:54:15.514Z,100551.69
2023-05-05T10:56:45.935Z,100552.41
2023-05-05T10:59:43.493Z,100549.78
2023-05-05T11:02:23.892Z,100539.16
2023-05-05T11:05:18.689Z,100543.78
2023-05-05T11:07:49.479Z,100542.41
2023-05-05T11:10:20.960Z,100536.34
2023-05-05T11:13:23.375Z,100544.28
2023-05-05T11:15:54.435Z,100541.50
2023-05-05T11:18:36.078Z,100545.63
2023-05-05T11:21:18.971Z,100541.63
2023-05-05T11:23:52.174Z,100538.75
2023-05-05T11:26:51.506Z,100537.59
2023-05-05T11:29:22.260Z,100536.28
2023-05-05T11:32:15.952Z,100542.59
2023-05-05T11:34:52.348Z,100536.47
2023-05-05T11:37:24.639Z,100533.63
2023-05-05T11:40:18.201Z,100530.38
2023-05-05T11:42:47.213Z,100538.41
2023-05-05T11:45:25.492Z,100540.16
2023-05-05T11:47:55.048Z,100532.66
2023-05-05T11:50:27.368Z,100541.22
2023-05-05T11:52:56.789Z,100532.19
2023-05-05T11:55:25.882Z,100539.28
2023-05-05T11:57:54.690Z,100537.31
2023-05-05T12:00:35.164Z,100528.84
2023-05-05T12:03:07.079Z,100534.06
2023-05-05T12:05:37.079Z,100537.72
2023-05-05T12:08:10.625Z,100534.75
2023-05-05T12:10:39.743Z,100528.72
2023-05-05T12:20:01.023Z,100530.25
2023-05-05T12:22:29.822Z,100523.72
2023-05-05T12:25:00.110Z,100526.34
2023-05-05T12:27:29.536Z,100530.38
2023-05-05T12:30:11.989Z,100521.06
2023-05-05T12:32:41.859Z,100519.81
2023-05-05T12:35:13.740Z,100523.94
2023-05-05T12:37:44.422Z,100520.91
2023-05-05T12:40:49.923Z,100523.56
2023-05-05T12:43:30.184Z,100520.69
2023-05-05T12:46:08.084Z,100517.31
2023-05-05T12:48:41.762Z,100512.97
2023-05-05T12:51:20.788Z,100512.78
2023-05-05T12:53:51.466Z,100513.50
2023-05-05T12:56:34.315Z,100521.09
2023-05-05T12:59:04.901Z,100514.41
2023-05-05T13:04:52.739Z,100513.31
2023-05-05T13:07:24.698Z,100508.19
2023-05-05T13:10:07.369Z,100514.66
2023-05-05T13:12:37.197Z,100507.38
2023-05-05T13:15:07.392Z,100513.19
2023-05-05T13:17:36.938Z,100511.94
2023-05-05T13:20:07.135Z,100516.28
2023-05-05T13:22:37.790Z,100511.16
2023-05-05T13:25:07.586Z,100517.84
2023-05-05T13:27:38.079Z,100519.72
2023-05-05T13:30:08.080Z,100524.22
2023-05-05T13:32:37.929Z,100515.00
2023-05-05T13:35:07.899Z,100512.66
2023-05-05T13:37:39.275Z,100514.19
2023-05-05T13:40:10.084Z,100511.13
2023-05-05T13:42:39.034Z,100512.09
2023-05-05T13:45:08.754Z,100513.38
2023-05-05T13:47:37.565Z,100518.16
2023-05-05T13:50:07.854Z,100507.22
2023-05-05T13:52:38.676Z,100512.03
2023-05-05T13:55:08.888Z,100519.38
2023-05-05T13:57:38.251Z,100511.31
2023-05-05T14:00:09.345Z,100504.56
2023-05-05T14:02:38.779Z,100493.06
2023-05-05T14:05:10.279Z,100501.84
2023-05-05T14:07:41.421Z,100503.59
2023-05-05T14:10:11.388Z,100494.94
2023-05-05T14:12:40.774Z,100493.91
2023-05-05T14:15:13.132Z,100488.78
2023-05-05T14:17:42.204Z,100492.81
2023-05-05T14:20:12.284Z,100488.94
2023-05-05T14:22:42.790Z,100496.00
2023-05-05T14:25:11.916Z,100483.28
2023-05-05T14:27:41.220Z,100489.91
2023-05-05T14:30:11.493Z,100487.84
2023-05-05T14:32:40.654Z,100487.38
2023-05-05T14:35:10.331Z,100485.09
2023-05-05T14:37:39.892Z,100489.03
2023-05-05T14:40:11.669Z,100486.41
2023-05-05T14:42:40.542Z,100488.44
2023-05-05T14:45:11.346Z,100480.44
2023-05-05T14:47:40.566Z,100482.50
2023-05-05T14:50:11.152Z,100487.56
2023-05-05T14:52:40.621Z,100482.50
2023-05-05T14:55:11.899Z,100480.94
2023-05-05T14:57:43.170Z,100489.03
2023-05-05T15:00:13.130Z,100482.50
2023-05-05T15:02:42.715Z,100484.81
2023-05-05T15:05:12.315Z,100484.47
2023-05-05T15:07:41.547Z,100491.72
2023-05-05T15:10:12.669Z,100489.28
2023-05-05T15:12:42.529Z,100498.50
2023-05-05T15:15:12.247Z,100496.31
2023-05-05T15:17:42.061Z,100493.88
2023-05-05T15:20:11.895Z,100505.69
2023-05-05T15:22:41.287Z,100501.06
2023-05-05T15:25:12.736Z,100506.00
2023-05-05T15:27:42.326Z,100508.13
2023-05-05T15:30:14.183Z,100504.44
2023-05-05T15:32:43.234Z,100515.75
2023-05-05T15:35:12.338Z,100522.25
2023-05-05T15:37:42.748Z,100521.84
2023-05-05T15:40:14.202Z,100520.88
2023-05-05T15:42:43.534Z,100517.34
2023-05-05T15:45:15.140Z,100520.44
2023-05-05T15:47:44.340Z,100514.16
2023-05-05T15:50:14.424Z,100530.25
2023-05-05T15:52:43.336Z,100533.09
2023-05-05T15:55:13.919Z,100526.75
2023-05-05T15:57:42.803Z,100512.75
2023-05-05T16:00:12.923Z,100522.22
2023-05-05T16:02:41.710Z,100523.72
2023-05-05T16:05:11.209Z,100517.34
2023-05-05T16:07:40.026Z,100514.25
2023-05-05T16:10:10.819Z,100525.88
2023-05-05T16:12:41.263Z,100524.25
2023-05-05T16:15:11.385Z,100515.69
2023-05-05T16:17:40.424Z,100516.78
2023-05-05T16:20:10.287Z,100518.78
2023-05-05T16:22:38.975Z,100519.03
2023-05-05T16:25:09.029Z,100518.50
2023-05-05T16:27:37.758Z,100521.91
2023-05-05T16:30:10.450Z,100523.66
2023-05-05T16:32:39.232Z,100528.75
2023-05-05T16:35:09.481Z,100524.03
2023-05-05T16:37:40.888Z,100521.84
2023-05-05T16:40:11.025Z,100528.53
2023-05-05T16:42:40.552Z,100523.44
2023-05-05T16:45:12.441Z,100522.66
2023-05-05T16:47:41.284Z,100522.28
2023-05-05T16:50:10.746Z,100536.44
2023-05-05T16:52:39.656Z,100528.13
2023-05-05T16:55:09.319Z,100533.00
2023-05-05T16:57:38.147Z,100532.50
2023-05-05T17:00:08.704Z,100538.31
2023-05-05T17:02:39.334Z,100539.59
2023-05-05T17:05:08.853Z,100536.69
2023-05-05T17:07:37.756Z,100543.97
2023-05-05T17:10:07.661Z,100545.06
2023-05-05T17:12:36.754Z,100540.97
2023-05-05T17:15:08.309Z,100551.97
2023-05-05T17:17:39.712Z,100557.69
2023-05-05T17:20:10.817Z,100562.13
2023-05-05T17:22:40.047Z,100559.91
2023-05-05T17:25:09.682Z,100560.16
2023-05-05T17:27:39.483Z,100558.72
2023-05-05T17:30:09.603Z,100563.47
2023-05-05T17:32:39.883Z,100562.09
2023-05-05T17:35:10.047Z,100561.66
2023-05-05T17:37:40.217Z,100555.94
2023-05-05T17:40:10.651Z,100564.88
2023-05-05T17:42:39.757Z,100568.75
2023-05-05T17:45:10.027Z,100571.75
2023-05-05T17:47:42.528Z,100571.22
2023-05-05T17:50:12.474Z,100563.19
2023-05-05T17:52:44.239Z,100571.53
2023-05-05T17:55:13.269Z,100569.50
2023-05-05T17:57:41.955Z,100577.72
2023-05-05T18:00:11.707Z,100578.88
2023-05-05T18:02:44.663Z,100582.53
2023-05-05T18:05:13.492Z,100585.16
2023-05-05T18:07:42.283Z,100589.81
2023-05-05T18:10:11.994Z,100595.28
2023-05-05T18:12:41.542Z,100595.41
2023-05-05T18:15:11.280Z,100590.38
2023-05-05T18:17:44.842Z,100595.88
2023-05-05T18:20:18.302Z,100597.25
2023-05-05T18:22:48.984Z,100602.09
2023-05-05T18:25:19.412Z,100610.38
2023-05-05T18:27:54.009Z,100609.63
2023-05-05T18:30:29.137Z,100604.84
2023-05-05T18:33:02.507Z,100613.81
2023-05-05T18:35:40.211Z,100602.84
2023-05-05T18:38:15.194Z,100610.06
2023-05-05T18:40:49.154Z,100609.50
2023-05-05T18:43:24.576Z,100612.50
2023-05-05T18:46:00.276Z,100621.41
2023-05-05T18:48:34.397Z,100616.38
2023-05-05T18:51:09.323Z,100627.03
2023-05-05T18:53:43.040Z,100624.53
2023-05-05T18:56:17.061Z,100621.41
2023-05-05T18:58:51.792Z,100627.09
2023-05-05T19:01:26.966Z,100624.78
2023-05-05T19:04:00.883Z,100625.91
2023-05-05T19:06:35.947Z,100624.34
2023-05-05T19:09:07.567Z,100622.75
2023-05-05T19:11:42.746Z,100621.19
2023-05-05T19:14:27.736Z,100624.09
2023-05-05T19:16:59.695Z,100635.00
2023-05-05T19:19:30.055Z,100625.66
2023-05-05T19:22:03.812Z,100632.97
2023-05-05T19:24:35.681Z,100629.88
2023-05-05T19:27:05.459Z,100639.00
2023-05-05T19:29:36.381Z,100639.44
2023-05-05T19:32:06.166Z,100633.53
2023-05-05T19:34:34.957Z,100632.09
2023-05-05T19:37:05.340Z,100629.56
2023-05-05T19:39:34.444Z,100627.81
2023-05-05T19:42:04.733Z,100627.09
2023-05-05T19:44:34.322Z,100639.44
2023-05-05T19:47:03.697Z,100628.16
2023-05-05T19:49:32.972Z,100633.56
2023-05-05T19:52:02.169Z,100628.63
2023-05-05T19:54:32.579Z,100627.03
2023-05-05T19:57:02.130Z,100629.09
2023-05-05T19:59:33.179Z,100624.94
2023-05-05T20:02:05.689Z,100627.00
2023-05-05T20:04:34.907Z,100619.09
2023-05-05T20:07:05.117Z,100617.41
2023-05-05T20:09:36.141Z,100612.28
2023-05-05T20:12:05.137Z,100619.94
2023-05-05T20:14:33.959Z,100619.09
2023-05-05T20:17:03.168Z,100626.22
2023-05-05T20:19:33.049Z,100620.97
2023-05-05T20:22:02.132Z,100619.34
2023-05-05T20:24:31.279Z,100624.84
2023-05-05T20:27:02.148Z,100621.50
2023-05-05T20:29:32.825Z,100619.84
2023-05-05T20:32:02.406Z,100622.53
2023-05-05T20:34:31.579Z,100615.72
2023-05-05T20:37:01.093Z,100620.31
2023-05-05T20:39:30.031Z,100617.00
2023-05-05T20:42:00.006Z,100634.56
2023-05-05T20:44:29.282Z,100627.69
2023-05-05T20:46:58.356Z,100629.59
2023-05-05T20:49:27.450Z,100637.66
2023-05-05T20:51:56.499Z,100629.09
2023-05-05T20:54:26.125Z,100636.28
2023-05-05T20:56:58.406Z,100643.34
2023-05-05T20:59:29.302Z,100640.94
2023-05-05T21:01:58.746Z,100637.69
2023-05-05T21:04:28.057Z,100642.09
2023-05-05T21:06:57.667Z,100640.53
2023-05-05T21:09:26.940Z,100637.00
2023-05-05T21:11:55.564Z,100641.50
2023-05-05T21:14:27.406Z,100630.28
2023-05-05T21:16:57.434Z,100625.16
2023-05-05T21:19:26.497Z,100631.66
2023-05-05T21:21:59.290Z,100628.38
2023-05-05T21:24:28.313Z,100628.66
2023-05-05T21:26:57.533Z,100627.00
2023-05-05T21:29:27.487Z,100629.00
2023-05-05T21:31:59.632Z,100626.53
2023-05-05T21:34:30.451Z,100622.16
2023-05-05T21:36:59.403Z,100630.94
2023-05-05T21:39:28.403Z,100628.31
2023-05-05T21:41:57.037Z,100622.25
2023-05-05T21:44:26.954Z,100622.25
2023-05-05T21:46:57.831Z,100624.09
2023-05-05T21:49:26.593Z,100626.78
2023-05-05T21:51:55.583Z,100629.63
2023-05-05T21:54:26.828Z,100629.84
2023-05-05T21:56:57.000Z,100625.56
2023-05-05T21:59:26.014Z,100626.56
2023-05-05T22:01:56.163Z,100620.53
2023-05-05T22:04:26.544Z,100628.53
2023-05-05T22:06:57.806Z,100619.03
2023-05-05T22:09:26.889Z,100616.38
2023-05-05T22:11:56.933Z,100620.78
2023-05-05T22:14:26.481Z,100616.50
2023-05-05T22:16:55.384Z,100615.69
2023-05-05T22:19:26.002Z,100614.06
2023-05-05T22:21:54.967Z,100618.53
2023-05-05T22:24:24.539Z,100622.94
2023-05-05T22:26:54.329Z,100623.88
2023-05-05T22:29:24.905Z,100612.53
2023-05-05T22:31:54.704Z,100620.41
2023-05-05T22:34:24.069Z,100614.44
2023-05-05T22:36:54.426Z,100617.22
2023-05-05T22:39:24.033Z,100613.00
2023-05-05T22:41:53.737Z,100610.41
2023-05-05T22:44:25.294Z,100614.91
2023-05-05T22:46:54.285Z,100606.34
2023-05-05T22:49:25.100Z,100616.91
2023-05-05T22:51:55.753Z,100612.63
2023-05-05T22:54:24.985Z,100603.09
2023-05-05T22:56:54.322Z,100614.44
2023-05-05T22:59:23.223Z,100611.13
2023-05-05T23:01:52.497Z,100608.81
2023-05-05T23:04:21.497Z,100607.19
2023-05-05T23:06:50.310Z,100621.22
2023-05-05T23:09:21.630Z,100617.88
2023-05-05T23:11:50.900Z,100617.03
2023-05-05T23:14:19.855Z,100609.25
2023-05-05T23:16:50.029Z,100606.81
2023-05-05T23:19:19.433Z,100607.75
2023-05-05T23:21:53.186Z,100605.16
2023-05-05T23:24:24.043Z,100602.56
2023-05-05T23:26:56.818Z,100601.53
2023-05-05T23:29:26.047Z,100592.72
2023-05-05T23:31:55.841Z,100597.03
2023-05-05T23:34:25.252Z,100600.41
2023-05-05T23:36:54.542Z,100603.84
2023-05-05T23:39:25.033Z,100599.34
2023-05-05T23:41:54.128Z,100602.00
2023-05-05T23:44:22.827Z,100603.69
2023-05-05T23:46:51.809Z,100600.16
2023-05-05T23:49:20.933Z,100597.47
2023-05-05T23:51:50.339Z,100592.97
2023-05-05T23:54:20.895Z,100594.59
2023-05-05T23:56:51.164Z,100599.91
2023-05-05T23:59:20.272Z,100591.16
